Time;durP1;ratioP1;P1;durP2;ratioP2;P2;SDS_P1;SDS_P2;PMS_P1;PMS_P2;Temp;Humidity;BMP_temperature;BMP_pressure;BME280_temperature;BME280_humidity;BME280_pressure;Samples;Min_cycle;Max_cycle;Signal;HPM_P1;HPM_P2
2022/06/16 00:01:08;;;;;;;6.30;2.33;;;;;;;;;;4212859;34;20109;-59
2022/06/16 00:33:08;;;;;;;4.05;2.20;;;;;;;;;;4768950;28;20319;-58
2022/06/16 00:35:34;;;;;;;2.65;2.25;;;;;;;;;;4203490;34;20089;-60
2022/06/16 00:38:00;;;;;;;5.40;2.40;;;;;;;;;;4217505;33;20097;-60
2022/06/16 00:40:26;;;;;;;3.25;2.50;;;;;;;;;;4222174;33;20176;-61
2022/06/16 00:42:52;;;;;;;3.33;2.55;;;;;;;;;;4219664;33;20774;-62
2022/06/16 00:45:59;;;;;;;5.90;3.17;;;;;;;;;;4233295;33;20173;-62
2022/06/16 00:48:33;;;;;;;6.22;3.65;;;;;;;;;;4220477;33;20131;-61
2022/06/16 00:51:09;;;;;;;7.62;4.03;;;;;;;;;;4233309;33;20517;-60
2022/06/16 00:53:36;;;;;;;7.60;4.37;;;;;;;;;;4220150;33;20530;-64
2022/06/16 00:56:02;;;;;;;8.25;4.60;;;;;;;;;;4219213;34;20111;-63
2022/06/16 00:58:28;;;;;;;5.30;4.12;;;;;;;;;;4219210;34;20538;-63
2022/06/16 01:00:55;;;;;;;8.93;4.72;;;;;;;;;;4194711;34;20144;-60
2022/06/16 01:06:19;;;;;;;5.37;4.87;;;;;;;;;;4219426;34;20116;-60
2022/06/16 01:08:46;;;;;;;4.87;3.67;;;;;;;;;;4220951;33;20224;-60
2022/06/16 01:13:41;;;;;;;6.75;3.75;;;;;;;;;;4233357;33;20162;-60
2022/06/16 01:14:10;;;;;;;6.93;3.37;;;;;;;;;;4222136;33;20116;-59
2022/06/16 01:16:42;;;;;;;9.85;4.53;;;;;;;;;;4233307;33;20100;-59
2022/06/16 01:19:27;;;;;;;12.32;5.32;;;;;;;;;;4220399;33;20112;-59
2022/06/16 01:21:55;;;;;;;11.87;3.83;;;;;;;;;;4233383;33;20099;-59
2022/06/16 01:24:44;;;;;;;4.12;3.70;;;;;;;;;;4232992;33;20188;-59
2022/06/16 01:27:28;;;;;;;8.13;3.62;;;;;;;;;;4220015;33;20191;-58
2022/06/16 01:30:03;;;;;;;5.15;3.03;;;;;;;;;;4219177;33;20201;-59
2022/06/16 01:32:31;;;;;;;10.37;3.63;;;;;;;;;;4232990;33;20124;-59
2022/06/16 01:35:33;;;;;;;6.10;3.35;;;;;;;;;;4232931;33;20097;-59
2022/06/16 01:38:20;;;;;;;4.90;3.20;;;;;;;;;;4204967;34;20205;-59
2022/06/16 01:41:04;;;;;;;4.35;2.90;;;;;;;;;;4204836;34;20106;-59
2022/06/16 01:43:41;;;;;;;2.60;2.40;;;;;;;;;;4192041;34;20118;-59
2022/06/16 01:46:23;;;;;;;4.53;2.80;;;;;;;;;;4192325;34;20482;-60
2022/06/16 01:48:52;;;;;;;6.25;3.75;;;;;;;;;;4204933;34;20204;-60
2022/06/16 01:51:28;;;;;;;5.72;3.62;;;;;;;;;;4192209;34;20130;-60
2022/06/16 01:54:07;;;;;;;10.30;3.40;;;;;;;;;;4204969;34;20098;-60
2022/06/16 01:56:54;;;;;;;3.97;3.05;;;;;;;;;;4191901;34;20612;-60
2022/06/16 01:59:26;;;;;;;7.35;3.28;;;;;;;;;;4191957;34;20536;-60
2022/06/16 02:01:57;;;;;;;5.97;3.20;;;;;;;;;;4191966;34;20113;-60
2022/06/16 02:04:31;;;;;;;5.90;2.80;;;;;;;;;;4192198;34;20462;-60
2022/06/16 02:07:01;;;;;;;9.10;2.73;;;;;;;;;;4191973;34;20133;-60
2022/06/16 02:09:33;;;;;;;3.95;2.75;;;;;;;;;;4191852;34;20117;-60
2022/06/16 02:12:00;;;;;;;3.37;2.80;;;;;;;;;;4231467;33;20119;-60
2022/06/16 02:14:32;;;;;;;5.15;3.00;;;;;;;;;;4219586;33;20121;-60
2022/06/16 02:16:58;;;;;;;7.30;2.95;;;;;;;;;;4219575;33;20189;-60
2022/06/16 02:19:25;;;;;;;6.30;2.87;;;;;;;;;;4232401;33;20454;-60
2022/06/16 02:21:52;;;;;;;6.28;2.78;;;;;;;;;;4232458;33;20472;-60
2022/06/16 02:24:26;;;;;;;4.07;2.92;;;;;;;;;;4232651;33;20209;-60
2022/06/16 02:26:56;;;;;;;7.00;2.80;;;;;;;;;;4232576;33;20123;-60
2022/06/16 02:29:34;;;;;;;7.20;3.45;;;;;;;;;;4219290;33;20131;-60
2022/06/16 02:32:22;;;;;;;12.02;4.25;;;;;;;;;;4232441;33;20537;-60
2022/06/16 02:35:02;;;;;;;5.40;2.70;;;;;;;;;;4232349;33;20196;-60
2022/06/16 02:37:31;;;;;;;7.60;2.97;;;;;;;;;;4222523;33;20104;-60
2022/06/16 02:40:48;;;;;;;5.35;2.83;;;;;;;;;;4218224;34;20125;-60
2022/06/16 02:43:26;;;;;;;;;;;;;;;;;;4188250;34;20105;-61
2022/06/16 02:46:29;;;;;;;13.57;2.95;;;;;;;;;;4205310;34;19989;-60
2022/06/16 02:49:29;;;;;;;7.93;2.58;;;;;;;;;;4218641;34;20120;-60
2022/06/16 02:52:13;;;;;;;5.03;3.25;;;;;;;;;;4205692;34;20121;-60
2022/06/16 02:55:24;;;;;;;4.07;3.00;;;;;;;;;;4218315;34;20526;-60
2022/06/16 02:57:56;;;;;;;7.55;3.33;;;;;;;;;;4162995;34;20158;-60
2022/06/16 03:00:29;;;;;;;5.00;3.08;;;;;;;;;;4163140;34;20148;-59
2022/06/16 03:02:55;;;;;;;3.87;2.60;;;;;;;;;;4188418;34;20513;-60
2022/06/16 03:05:21;;;;;;;5.47;2.78;;;;;;;;;;4218457;34;20109;-60
2022/06/16 03:07:47;;;;;;;7.80;3.00;;;;;;;;;;4218099;34;20137;-60
2022/06/16 03:10:50;;;;;;;8.20;3.10;;;;;;;;;;4205237;34;20104;-60
2022/06/16 03:13:01;;;;;;;7.78;3.12;;;;;;;;;;4218021;34;20120;-60
2022/06/16 03:15:27;;;;;;;5.65;2.92;;;;;;;;;;4217921;34;20538;-60
2022/06/16 03:17:53;;;;;;;6.18;3.10;;;;;;;;;;4217863;34;20224;-60
2022/06/16 03:20:19;;;;;;;9.45;3.55;;;;;;;;;;4216502;34;20098;-60
2022/06/16 03:22:44;;;;;;;7.03;3.25;;;;;;;;;;4204780;34;20121;-63
2022/06/16 03:25:11;;;;;;;14.15;4.40;;;;;;;;;;4217863;34;20108;-61
2022/06/16 03:27:37;;;;;;;6.80;3.22;;;;;;;;;;4204807;34;20122;-61
2022/06/16 03:30:04;;;;;;;12.90;3.58;;;;;;;;;;4205163;34;20097;-61
2022/06/16 03:32:30;;;;;;;5.37;2.62;;;;;;;;;;4216437;34;20131;-60
2022/06/16 03:34:56;;;;;;;17.15;5.10;;;;;;;;;;4204640;34;20143;-61
2022/06/16 03:37:24;;;;;;;19.35;3.87;;;;;;;;;;4217694;34;20224;-61
2022/06/16 03:39:50;;;;;;;14.10;3.97;;;;;;;;;;4217869;34;20109;-66
2022/06/16 03:42:16;;;;;;;6.47;3.45;;;;;;;;;;4217892;34;20444;-62
2022/06/16 03:44:42;;;;;;;8.07;3.40;;;;;;;;;;4205052;34;20113;-61
2022/06/16 03:47:08;;;;;;;8.70;3.20;;;;;;;;;;4204727;34;20231;-61
2022/06/16 03:49:34;;;;;;;4.65;2.75;;;;;;;;;;4217647;34;20121;-61
2022/06/16 03:52:00;;;;;;;5.37;3.22;;;;;;;;;;4205238;34;20085;-61
2022/06/16 03:54:26;;;;;;;4.25;2.60;;;;;;;;;;4219713;34;20625;-61
2022/06/16 03:56:52;;;;;;;5.93;3.08;;;;;;;;;;4219701;34;20129;-61
2022/06/16 03:59:21;;;;;;;8.95;2.80;;;;;;;;;;4219569;34;20121;-61
2022/06/16 04:01:48;;;;;;;8.02;3.15;;;;;;;;;;4219746;34;20180;-60
2022/06/16 04:04:14;;;;;;;4.22;2.87;;;;;;;;;;4219806;34;20128;-60
2022/06/16 04:06:40;;;;;;;9.70;3.00;;;;;;;;;;4219543;34;20094;-61
2022/06/16 04:09:06;;;;;;;8.15;3.37;;;;;;;;;;4219726;34;20108;-61
2022/06/16 04:11:32;;;;;;;6.28;3.47;;;;;;;;;;4219414;34;20193;-61
2022/06/16 04:14:10;;;;;;;4.35;3.40;;;;;;;;;;4219531;34;20105;-60
2022/06/16 04:16:42;;;;;;;3.35;2.90;;;;;;;;;;4206315;34;20440;-62
2022/06/16 04:19:09;;;;;;;6.70;3.40;;;;;;;;;;4206898;34;20478;-61
2022/06/16 04:21:37;;;;;;;4.95;3.12;;;;;;;;;;4219361;34;20105;-61
2022/06/16 04:24:03;;;;;;;4.95;3.05;;;;;;;;;;4219463;34;20105;-61
2022/06/16 04:26:29;;;;;;;6.07;3.35;;;;;;;;;;4219334;34;20101;-61
2022/06/16 04:28:55;;;;;;;8.43;2.90;;;;;;;;;;4219402;34;20090;-60
2022/06/16 04:31:21;;;;;;;5.65;3.03;;;;;;;;;;4219255;34;20188;-61
2022/06/16 04:33:47;;;;;;;3.30;2.78;;;;;;;;;;4206173;34;20136;-61
2022/06/16 04:36:14;;;;;;;4.12;3.03;;;;;;;;;;4219286;34;20121;-60
2022/06/16 04:38:40;;;;;;;3.97;2.95;;;;;;;;;;4219608;34;20102;-62
2022/06/16 04:41:06;;;;;;;7.62;2.92;;;;;;;;;;4206411;34;20101;-61
2022/06/16 04:43:32;;;;;;;20.27;3.50;;;;;;;;;;4219299;34;20179;-62
2022/06/16 04:45:58;;;;;;;3.58;2.47;;;;;;;;;;4206627;34;20098;-61
2022/06/16 04:48:25;;;;;;;9.68;2.90;;;;;;;;;;4206631;34;20126;-62
2022/06/16 04:50:51;;;;;;;4.30;2.95;;;;;;;;;;4206538;34;20124;-61
2022/06/16 04:53:17;;;;;;;3.22;2.50;;;;;;;;;;4206230;34;20109;-62
2022/06/16 04:55:43;;;;;;;12.63;3.08;;;;;;;;;;4219443;34;20317;-62
2022/06/16 04:58:09;;;;;;;4.80;2.40;;;;;;;;;;4206213;34;20115;-61
2022/06/16 05:00:35;;;;;;;3.28;2.90;;;;;;;;;;4219307;34;20097;-61
2022/06/16 05:03:02;;;;;;;5.72;2.60;;;;;;;;;;4218785;34;20125;-61
2022/06/16 05:05:28;;;;;;;9.98;2.87;;;;;;;;;;4218901;34;20161;-61
2022/06/16 05:07:54;;;;;;;4.45;2.92;;;;;;;;;;4219070;34;20208;-63
2022/06/16 05:10:20;;;;;;;15.10;3.03;;;;;;;;;;4219079;34;20098;-64
2022/06/16 05:12:46;;;;;;;5.37;2.67;;;;;;;;;;4219266;34;20200;-62
2022/06/16 05:15:12;;;;;;;8.98;3.08;;;;;;;;;;4194553;34;20113;-63
2022/06/16 05:17:38;;;;;;;3.65;2.67;;;;;;;;;;4219071;34;20476;-63
2022/06/16 05:20:04;;;;;;;5.53;3.35;;;;;;;;;;4219389;34;20097;-63
2022/06/16 05:22:30;;;;;;;10.27;3.50;;;;;;;;;;4219226;34;20113;-63
2022/06/16 05:24:56;;;;;;;25.92;4.20;;;;;;;;;;4218992;34;20108;-63
2022/06/16 05:27:22;;;;;;;3.97;2.95;;;;;;;;;;4205998;34;20109;-63
2022/06/16 05:29:48;;;;;;;2.97;2.30;;;;;;;;;;4205910;34;20136;-64
2022/06/16 05:32:14;;;;;;;3.30;1.92;;;;;;;;;;4194698;34;20165;-61
2022/06/16 05:34:42;;;;;;;3.25;2.28;;;;;;;;;;4219142;34;20116;-63
2022/06/16 05:37:08;;;;;;;3.58;2.22;;;;;;;;;;4218841;34;20120;-63
2022/06/16 05:39:34;;;;;;;9.55;2.97;;;;;;;;;;4218999;34;20109;-63
2022/06/16 05:42:00;;;;;;;1.65;1.55;;;;;;;;;;4218999;34;20090;-63
2022/06/16 05:44:26;;;;;;;9.18;2.83;;;;;;;;;;4206155;34;20090;-63
2022/06/16 05:46:52;;;;;;;4.87;2.22;;;;;;;;;;4219026;34;20212;-63
2022/06/16 05:49:18;;;;;;;18.67;2.95;;;;;;;;;;4218904;34;20441;-62
2022/06/16 05:51:44;;;;;;;15.90;3.72;;;;;;;;;;4205837;34;20109;-63
2022/06/16 05:54:11;;;;;;;10.75;2.50;;;;;;;;;;4205937;34;20446;-62
2022/06/16 05:56:37;;;;;;;2.40;2.15;;;;;;;;;;4218674;34;20514;-63
2022/06/16 05:59:03;;;;;;;5.15;2.22;;;;;;;;;;4218838;34;20286;-62
2022/06/16 06:01:29;;;;;;;3.20;2.20;;;;;;;;;;4218838;34;20244;-62
2022/06/16 06:03:55;;;;;;;2.45;2.10;;;;;;;;;;4205837;34;20098;-60
2022/06/16 06:06:21;;;;;;;2.42;2.10;;;;;;;;;;4205762;34;20220;-62
2022/06/16 06:17:08;;;;;;;11.57;2.25;;;;;;;;;;4218686;34;20121;-63
2022/06/16 06:19:34;;;;;;;37.08;4.82;;;;;;;;;;4205699;34;20114;-63
2022/06/16 06:22:02;;;;;;;3.03;2.30;;;;;;;;;;4205571;34;20109;-61
2022/06/16 06:24:42;;;;;;;14.90;3.10;;;;;;;;;;4205634;34;20126;-61
2022/06/16 06:27:14;;;;;;;7.30;2.80;;;;;;;;;;4218567;34;20085;-62
2022/06/16 06:29:44;;;;;;;27.85;6.30;;;;;;;;;;4218587;34;20121;-62
2022/06/16 06:32:11;;;;;;;4.85;2.45;;;;;;;;;;4218691;34;20182;-62
2022/06/16 06:34:37;;;;;;;19.70;4.18;;;;;;;;;;4218206;34;20205;-62
2022/06/16 06:37:04;;;;;;;22.02;3.72;;;;;;;;;;4218247;34;20112;-62
2022/06/16 06:39:30;;;;;;;35.15;7.55;;;;;;;;;;4218317;34;20478;-62
2022/06/16 06:41:56;;;;;;;11.95;3.50;;;;;;;;;;4218627;34;20212;-62
2022/06/16 06:44:22;;;;;;;3.50;1.92;;;;;;;;;;4218587;34;20208;-62
2022/06/16 06:46:49;;;;;;;5.68;2.03;;;;;;;;;;4218286;34;20109;-64
2022/06/16 06:49:15;;;;;;;56.30;6.28;;;;;;;;;;4218246;34;20112;-63
2022/06/16 06:51:41;;;;;;;13.13;2.87;;;;;;;;;;4218264;34;20124;-63
2022/06/16 06:54:08;;;;;;;2.20;1.85;;;;;;;;;;4205334;34;20537;-63
2022/06/16 06:56:34;;;;;;;9.55;2.83;;;;;;;;;;4218224;34;20109;-63
2022/06/16 06:59:04;;;;;;;11.00;2.45;;;;;;;;;;4218266;34;20132;-63
2022/06/16 07:01:30;;;;;;;3.42;1.77;;;;;;;;;;4205448;34;20120;-63
2022/06/16 07:03:56;;;;;;;4.53;2.10;;;;;;;;;;4218087;34;20131;-65
2022/06/16 07:06:22;;;;;;;8.52;2.20;;;;;;;;;;4218212;34;20137;-65
2022/06/16 07:08:48;;;;;;;3.78;2.10;;;;;;;;;;4193844;34;20120;-63
2022/06/16 07:11:15;;;;;;;6.75;2.03;;;;;;;;;;4182105;34;20125;-61
2022/06/16 07:13:41;;;;;;;9.23;2.47;;;;;;;;;;4218169;34;20217;-64
2022/06/16 07:16:08;;;;;;;6.25;2.60;;;;;;;;;;4217966;34;20208;-63
2022/06/16 07:18:34;;;;;;;11.07;2.20;;;;;;;;;;4205291;34;20116;-63
2022/06/16 07:21:00;;;;;;;3.70;1.37;;;;;;;;;;4205037;34;20102;-63
2022/06/16 07:23:27;;;;;;;4.40;1.80;;;;;;;;;;4218283;34;20106;-63
2022/06/16 07:25:53;;;;;;;5.82;2.00;;;;;;;;;;4218231;34;20090;-63
2022/06/16 07:28:19;;;;;;;7.32;2.97;;;;;;;;;;4219801;34;20214;-62
2022/06/16 07:30:46;;;;;;;1.50;1.40;;;;;;;;;;4207372;34;20160;-64
2022/06/16 07:33:12;;;;;;;1.77;1.67;;;;;;;;;;4206925;34;20654;-63
2022/06/16 07:35:43;;;;;;;5.78;2.03;;;;;;;;;;4195558;34;20481;-64
2022/06/16 07:38:12;;;;;;;4.68;2.30;;;;;;;;;;4220078;34;20108;-64
2022/06/16 07:40:39;;;;;;;2.08;1.80;;;;;;;;;;4219879;34;20109;-63
2022/06/16 07:43:06;;;;;;;3.55;1.73;;;;;;;;;;4220131;34;20097;-64
2022/06/16 07:45:34;;;;;;;3.85;1.73;;;;;;;;;;4219941;34;20102;-62
2022/06/16 07:48:02;;;;;;;6.25;1.85;;;;;;;;;;4219805;34;20109;-61
2022/06/16 07:50:30;;;;;;;2.05;1.65;;;;;;;;;;4219745;34;20487;-63
2022/06/16 07:52:56;;;;;;;6.93;1.83;;;;;;;;;;4220051;34;20194;-63
2022/06/16 07:55:22;;;;;;;3.42;1.75;;;;;;;;;;4219827;34;20145;-64
2022/06/16 07:57:50;;;;;;;6.05;2.72;;;;;;;;;;4219561;34;20129;-63
2022/06/16 08:00:23;;;;;;;3.67;2.08;;;;;;;;;;4195715;34;20432;-64
2022/06/16 08:02:49;;;;;;;2.60;1.70;;;;;;;;;;4219735;34;20156;-64
2022/06/16 08:05:15;;;;;;;4.28;2.20;;;;;;;;;;4203013;34;20133;-65
2022/06/16 08:07:41;;;;;;;4.70;2.40;;;;;;;;;;4202267;34;20128;-66
2022/06/16 08:10:14;;;;;;;8.93;2.30;;;;;;;;;;4202460;34;20228;-64
2022/06/16 08:12:41;;;;;;;1.92;1.60;;;;;;;;;;4191091;34;20153;-65
2022/06/16 08:15:07;;;;;;;2.75;2.10;;;;;;;;;;4215288;34;20519;-64
2022/06/16 08:17:36;;;;;;;8.30;2.35;;;;;;;;;;4202115;34;20208;-65
2022/06/16 08:20:03;;;;;;;4.15;2.40;;;;;;;;;;4219387;34;20110;-63
2022/06/16 08:22:29;;;;;;;4.97;2.10;;;;;;;;;;4219485;34;20570;-65
2022/06/16 08:24:56;;;;;;;9.32;2.37;;;;;;;;;;4219588;34;20153;-67
2022/06/16 08:27:26;;;;;;;2.35;1.27;;;;;;;;;;4219634;34;20120;-66
2022/06/16 08:29:53;;;;;;;4.97;2.70;;;;;;;;;;4220003;34;20173;-64
2022/06/16 08:32:20;;;;;;;2.90;1.70;;;;;;;;;;4206787;34;20129;-63
2022/06/16 08:34:46;;;;;;;4.65;1.40;;;;;;;;;;4206416;34;20133;-65
2022/06/16 08:37:12;;;;;;;6.78;2.10;;;;;;;;;;4219539;34;20558;-64
2022/06/16 08:39:38;;;;;;;1.90;1.80;;;;;;;;;;4206709;34;20117;-64
2022/06/16 08:42:12;;;;;;;5.82;2.37;;;;;;;;;;4206673;34;20106;-64
2022/06/16 08:45:13;;;;;;;2.53;2.25;;;;;;;;;;4219443;34;20105;-64
2022/06/16 08:48:08;;;;;;;2.37;2.17;;;;;;;;;;4213660;34;20553;-64
2022/06/16 08:50:41;;;;;;;6.78;3.00;;;;;;;;;;4206444;34;20104;-64
2022/06/16 08:53:37;;;;;;;2.28;2.08;;;;;;;;;;4194846;34;20173;-62
2022/06/16 08:56:07;;;;;;;1.70;1.60;;;;;;;;;;4219519;34;20552;-63
2022/06/16 08:59:04;;;;;;;6.68;2.20;;;;;;;;;;4206296;34;20205;-64
2022/06/16 09:01:42;;;;;;;5.95;2.40;;;;;;;;;;4206497;34;20457;-64
2022/06/16 09:04:12;;;;;;;5.18;2.22;;;;;;;;;;4219072;34;20534;-63
2022/06/16 09:07:00;;;;;;;3.42;2.20;;;;;;;;;;4206192;34;20621;-61
2022/06/16 09:10:17;;;;;;;5.37;2.47;;;;;;;;;;4206075;34;20148;-63
2022/06/16 09:12:57;;;;;;;8.55;2.42;;;;;;;;;;4202908;34;20557;-65
2022/06/16 09:15:34;;;;;;;4.53;3.35;;;;;;;;;;4206491;34;20116;-65
2022/06/16 09:18:35;;;;;;;3.15;2.72;;;;;;;;;;4206186;34;20093;-66
2022/06/16 09:21:06;;;;;;;2.75;2.05;;;;;;;;;;4207533;34;20121;-66
2022/06/16 09:23:58;;;;;;;3.95;2.60;;;;;;;;;;4219087;34;20098;-62
2022/06/16 09:26:29;;;;;;;3.75;2.10;;;;;;;;;;4219070;34;20470;-66
2022/06/16 09:29:04;;;;;;;6.60;2.45;;;;;;;;;;4206075;34;20109;-63
2022/06/16 09:31:40;;;;;;;3.80;2.60;;;;;;;;;;4219250;34;20106;-61
2022/06/16 09:34:18;;;;;;;5.35;2.37;;;;;;;;;;4205983;34;20124;-62
2022/06/16 09:36:51;;;;;;;2.60;2.37;;;;;;;;;;4218827;34;20674;-67
2022/06/16 09:39:21;;;;;;;10.38;2.80;;;;;;;;;;4206466;34;20105;-64
2022/06/16 09:44:55;;;;;;;3.17;2.10;;;;;;;;;;4207839;34;20131;-65
2022/06/16 09:47:26;;;;;;;3.08;2.00;;;;;;;;;;4194569;34;20098;-65
2022/06/16 09:49:59;;;;;;;2.33;2.12;;;;;;;;;;4205388;34;20208;-64
2022/06/16 09:52:41;;;;;;;4.50;2.50;;;;;;;;;;4205994;34;20105;-64
2022/06/16 09:55:34;;;;;;;2.75;2.45;;;;;;;;;;4194487;34;20463;-64
2022/06/16 09:58:07;;;;;;;4.65;2.85;;;;;;;;;;4205913;34;20101;-64
2022/06/16 10:00:34;;;;;;;7.50;2.80;;;;;;;;;;4206105;34;20125;-64
2022/06/16 10:03:13;;;;;;;3.37;2.72;;;;;;;;;;4218746;34;20086;-64
2022/06/16 10:05:57;;;;;;;4.45;3.08;;;;;;;;;;4206095;34;20089;-64
2022/06/16 10:09:05;;;;;;;2.97;2.60;;;;;;;;;;4218682;34;20433;-64
2022/06/16 10:12:02;;;;;;;10.20;2.72;;;;;;;;;;4177423;34;20122;-64
2022/06/16 10:14:42;;;;;;;5.10;2.30;;;;;;;;;;4218517;34;20101;-63
2022/06/16 10:17:11;;;;;;;7.07;2.28;;;;;;;;;;4218793;34;20126;-64
2022/06/16 10:19:39;;;;;;;3.40;2.15;;;;;;;;;;4205903;34;20205;-64
2022/06/16 10:22:07;;;;;;;6.65;2.28;;;;;;;;;;4205885;34;20185;-64
2022/06/16 10:24:38;;;;;;;3.60;2.12;;;;;;;;;;4205942;34;20131;-63
2022/06/16 10:27:04;;;;;;;3.47;2.20;;;;;;;;;;4194428;34;20145;-63
2022/06/16 10:29:35;;;;;;;4.12;2.40;;;;;;;;;;4205739;34;20189;-63
2022/06/16 10:32:01;;;;;;;6.65;2.08;;;;;;;;;;4218752;34;20106;-63
2022/06/16 10:34:40;;;;;;;3.62;2.25;;;;;;;;;;4205537;34;20105;-63
2022/06/16 10:37:14;;;;;;;5.45;2.45;;;;;;;;;;4205276;34;20097;-63
2022/06/16 10:39:43;;;;;;;15.35;2.62;;;;;;;;;;4218213;34;20546;-63
2022/06/16 10:42:20;;;;;;;8.57;3.90;;;;;;;;;;4205493;34;20113;-64
2022/06/16 10:44:54;;;;;;;4.25;2.42;;;;;;;;;;4205245;34;20124;-63
2022/06/16 10:47:24;;;;;;;6.85;4.95;;;;;;;;;;4205664;34;20514;-63
2022/06/16 10:49:51;;;;;;;2.85;2.55;;;;;;;;;;4205495;34;20125;-63
2022/06/16 10:52:31;;;;;;;3.08;2.33;;;;;;;;;;4205383;34;20597;-64
2022/06/16 10:55:02;;;;;;;2.33;2.03;;;;;;;;;;4193944;34;20207;-64
2022/06/16 10:57:33;;;;;;;2.50;2.30;;;;;;;;;;4218470;34;20098;-64
2022/06/16 11:00:10;;;;;;;4.40;2.70;;;;;;;;;;4205334;34;20147;-63
2022/06/16 11:02:36;;;;;;;4.07;3.35;;;;;;;;;;4204394;34;20129;-64
2022/06/16 11:05:20;;;;;;;3.10;2.80;;;;;;;;;;4205430;34;20090;-64
2022/06/16 11:07:46;;;;;;;5.62;2.95;;;;;;;;;;4205109;34;20501;-64
2022/06/16 11:10:17;;;;;;;11.65;2.80;;;;;;;;;;4182453;34;20120;-64
2022/06/16 11:12:46;;;;;;;5.45;2.47;;;;;;;;;;4205029;34;20220;-65
2022/06/16 11:15:28;;;;;;;4.22;3.58;;;;;;;;;;4205042;34;20126;-65
2022/06/16 11:18:00;;;;;;;7.15;4.97;;;;;;;;;;4217955;34;20781;-62
2022/06/16 11:20:39;;;;;;;10.02;4.12;;;;;;;;;;4193431;34;20449;-65
2022/06/16 11:23:24;;;;;;;10.90;2.83;;;;;;;;;;4205034;34;20116;-64
2022/06/16 11:26:16;;;;;;;5.40;2.80;;;;;;;;;;4204946;34;20123;-64
2022/06/16 11:28:52;;;;;;;4.93;2.72;;;;;;;;;;4201624;34;20450;-64
2022/06/16 11:31:24;;;;;;;6.25;3.30;;;;;;;;;;4217840;34;20112;-64
2022/06/16 11:34:13;;;;;;;9.82;4.75;;;;;;;;;;4217624;34;20200;-63
2022/06/16 11:37:06;;;;;;;9.82;4.60;;;;;;;;;;4205029;34;20433;-65
2022/06/16 11:39:37;;;;;;;7.57;4.97;;;;;;;;;;4217724;34;20105;-65
2022/06/16 11:42:04;;;;;;;5.90;4.28;;;;;;;;;;4217793;34;20116;-66
2022/06/16 11:44:51;;;;;;;5.53;3.33;;;;;;;;;;4217889;34;20469;-66
2022/06/16 11:47:39;;;;;;;5.28;2.67;;;;;;;;;;4218051;34;20139;-65
2022/06/16 11:50:44;;;;;;;5.80;3.03;;;;;;;;;;4217741;34;20543;-65
2022/06/16 11:53:23;;;;;;;4.15;2.80;;;;;;;;;;4194567;34;20129;-63
2022/06/16 11:55:58;;;;;;;6.37;3.22;;;;;;;;;;4193350;34;20129;-65
2022/06/16 11:58:23;;;;;;;;;;;;;;;;;;4217919;34;20106;-65
2022/06/16 12:01:07;;;;;;;5.68;3.25;;;;;;;;;;4204433;34;20393;-65
2022/06/16 12:03:45;;;;;;;9.40;4.18;;;;;;;;;;4217493;34;20136;-65
2022/06/16 12:06:23;;;;;;;2.97;2.50;;;;;;;;;;4217572;34;20610;-64
2022/06/16 12:08:52;;;;;;;6.50;2.92;;;;;;;;;;4217480;34;20117;-64
2022/06/16 12:11:24;;;;;;;6.62;3.25;;;;;;;;;;4181799;34;20100;-65
2022/06/16 12:14:06;;;;;;;3.70;2.55;;;;;;;;;;4218735;34;20129;-64
2022/06/16 12:16:40;;;;;;;5.12;3.03;;;;;;;;;;4190962;34;20595;-63
2022/06/16 12:19:47;;;;;;;4.22;2.80;;;;;;;;;;4202459;34;20121;-64
2022/06/16 12:22:13;;;;;;;8.23;3.00;;;;;;;;;;4198560;34;20139;-63
2022/06/16 12:24:47;;;;;;;22.00;11.43;;;;;;;;;;4215302;34;20208;-63
2022/06/16 12:27:16;;;;;;;25.33;10.90;;;;;;;;;;4215603;34;20551;-62
2022/06/16 12:30:05;;;;;;;19.48;8.60;;;;;;;;;;4204518;34;20131;-62
2022/06/16 12:32:56;;;;;;;8.95;4.72;;;;;;;;;;4195247;34;20541;-64
2022/06/16 12:35:22;;;;;;;4.30;2.67;;;;;;;;;;4206488;34;20129;-65
2022/06/16 12:37:52;;;;;;;7.30;2.30;;;;;;;;;;4206555;34;20127;-64
2022/06/16 12:40:21;;;;;;;4.80;2.60;;;;;;;;;;4206555;34;20113;-64
2022/06/16 12:42:56;;;;;;;11.80;2.78;;;;;;;;;;4219258;34;20123;-64
2022/06/16 12:45:46;;;;;;;14.57;3.27;;;;;;;;;;4195015;34;20116;-64
2022/06/16 12:48:20;;;;;;;3.12;2.37;;;;;;;;;;4215478;34;20121;-63
2022/06/16 12:50:50;;;;;;;7.93;2.60;;;;;;;;;;4219606;34;20102;-62
2022/06/16 12:53:28;;;;;;;3.17;2.10;;;;;;;;;;4206505;34;20101;-63
2022/06/16 12:55:59;;;;;;;8.27;2.03;;;;;;;;;;4206379;34;20585;-63
2022/06/16 12:58:28;;;;;;;2.17;1.98;;;;;;;;;;4219291;34;20109;-63
2022/06/16 13:00:58;;;;;;;5.55;2.40;;;;;;;;;;4206354;34;20124;-64
2022/06/16 13:03:39;;;;;;;6.03;2.55;;;;;;;;;;4206656;34;20192;-64
2022/06/16 13:06:05;;;;;;;3.28;2.20;;;;;;;;;;4201600;34;20173;-64
2022/06/16 13:08:34;;;;;;;5.72;2.20;;;;;;;;;;4206294;34;20113;-64
2022/06/16 13:11:04;;;;;;;3.62;2.20;;;;;;;;;;4219028;34;20483;-63
2022/06/16 13:14:01;;;;;;;7.45;2.47;;;;;;;;;;4206277;34;20117;-64
2022/06/16 13:16:30;;;;;;;11.15;2.80;;;;;;;;;;4218757;34;20124;-63
2022/06/16 13:18:58;;;;;;;7.28;2.42;;;;;;;;;;4219410;34;20128;-63
2022/06/16 13:21:31;;;;;;;5.20;2.40;;;;;;;;;;4206120;34;20129;-63
2022/06/16 13:24:24;;;;;;;5.97;2.20;;;;;;;;;;4204560;34;20200;-63
2022/06/16 13:27:11;;;;;;;4.18;2.20;;;;;;;;;;4186752;34;20197;-63
2022/06/16 13:29:42;;;;;;;3.83;2.28;;;;;;;;;;4218977;34;20103;-63
2022/06/16 13:32:33;;;;;;;9.85;4.70;;;;;;;;;;4219096;34;20117;-63
2022/06/16 13:35:00;;;;;;;5.65;4.10;;;;;;;;;;4218992;34;20132;-62
2022/06/16 13:37:32;;;;;;;11.05;4.50;;;;;;;;;;4219091;34;20090;-64
2022/06/16 13:40:07;;;;;;;4.78;3.37;;;;;;;;;;4218404;34;20539;-64
2022/06/16 13:42:50;;;;;;;4.37;3.97;;;;;;;;;;4219074;34;20105;-63
2022/06/16 13:45:31;;;;;;;3.25;2.53;;;;;;;;;;4206607;34;20197;-63
2022/06/16 13:48:08;;;;;;;9.82;2.45;;;;;;;;;;4218840;34;20102;-63
2022/06/16 13:50:50;;;;;;;4.32;2.20;;;;;;;;;;4206148;34;20117;-64
2022/06/16 13:53:44;;;;;;;5.72;2.83;;;;;;;;;;4218918;34;20523;-64
2022/06/16 13:56:22;;;;;;;4.05;2.40;;;;;;;;;;4194239;34;20121;-64
2022/06/16 13:58:51;;;;;;;4.53;2.03;;;;;;;;;;4218907;34;20125;-64
2022/06/16 14:01:21;;;;;;;3.03;2.10;;;;;;;;;;4218880;34;20129;-65
2022/06/16 14:04:15;;;;;;;7.32;2.20;;;;;;;;;;4218632;34;20473;-67
2022/06/16 14:07:20;;;;;;;5.68;2.20;;;;;;;;;;4205920;34;20120;-64
2022/06/16 14:10:00;;;;;;;6.72;2.20;;;;;;;;;;4176966;34;20141;-65
2022/06/16 14:12:48;;;;;;;4.65;2.22;;;;;;;;;;4188475;34;20509;-62
2022/06/16 14:15:14;;;;;;;8.63;2.42;;;;;;;;;;4210075;34;20106;-62
2022/06/16 14:17:44;;;;;;;4.43;2.22;;;;;;;;;;4205788;34;20113;-62
2022/06/16 14:20:18;;;;;;;4.35;2.35;;;;;;;;;;4218660;34;20525;-62
2022/06/16 14:22:46;;;;;;;6.03;2.37;;;;;;;;;;4205496;34;20136;-62
2022/06/16 14:25:27;;;;;;;2.97;2.40;;;;;;;;;;4218527;34;20125;-64
2022/06/16 14:27:55;;;;;;;4.32;2.50;;;;;;;;;;4205604;34;20156;-65
2022/06/16 14:30:29;;;;;;;5.03;2.40;;;;;;;;;;4205719;34;20225;-63
2022/06/16 14:33:09;;;;;;;4.22;2.40;;;;;;;;;;4205510;34;20552;-64
2022/06/16 14:35:35;;;;;;;2.15;1.95;;;;;;;;;;4218224;34;20121;-63
2022/06/16 14:38:03;;;;;;;4.65;2.65;;;;;;;;;;4218205;34;20218;-62
2022/06/16 14:40:51;;;;;;;6.82;2.17;;;;;;;;;;4218554;34;20194;-63
2022/06/16 14:43:29;;;;;;;9.43;2.37;;;;;;;;;;4218688;34;20105;-65
2022/06/16 14:46:00;;;;;;;2.62;2.25;;;;;;;;;;4205404;34;20799;-65
2022/06/16 14:48:33;;;;;;;8.27;2.85;;;;;;;;;;4205373;34;20125;-63
2022/06/16 14:51:02;;;;;;;4.12;2.20;;;;;;;;;;4205337;34;20189;-62
2022/06/16 14:54:08;;;;;;;6.57;2.22;;;;;;;;;;4205378;34;20140;-63
2022/06/16 14:56:54;;;;;;;;;;;;;;;;;;4217823;34;20217;-62
2022/06/16 14:59:22;;;;;;;5.30;2.45;;;;;;;;;;4218443;34;19994;-63
2022/06/16 15:01:50;;;;;;;3.08;2.22;;;;;;;;;;4218136;34;20106;-62
2022/06/16 15:04:22;;;;;;;5.78;2.80;;;;;;;;;;4218482;34;20101;-62
2022/06/16 15:06:51;;;;;;;2.83;2.50;;;;;;;;;;4205291;34;20109;-64
2022/06/16 15:09:38;;;;;;;9.30;2.60;;;;;;;;;;4205358;34;20110;-63
2022/06/16 15:12:06;;;;;;;8.02;2.58;;;;;;;;;;4218124;34;20113;-63
2022/06/16 15:14:34;;;;;;;12.27;2.55;;;;;;;;;;4217957;34;20181;-63
2022/06/16 15:19:51;;;;;;;3.72;2.62;;;;;;;;;;4205098;34;20124;-62
2022/06/16 15:22:19;;;;;;;6.60;2.47;;;;;;;;;;4193539;34;20105;-63
2022/06/16 15:24:59;;;;;;;5.43;2.60;;;;;;;;;;4204904;34;20133;-64
2022/06/16 15:27:34;;;;;;;4.18;3.05;;;;;;;;;;4218118;34;20151;-64
2022/06/16 15:30:03;;;;;;;4.95;2.87;;;;;;;;;;4218085;34;20125;-64
2022/06/16 15:38:14;;;;;;;10.88;3.20;;;;;;;;;;4217789;34;20108;-64
2022/06/16 15:40:41;;;;;;;11.80;3.28;;;;;;;;;;4205170;34;20136;-64
2022/06/16 15:43:10;;;;;;;5.57;3.20;;;;;;;;;;4204941;34;20537;-63
2022/06/16 15:45:36;;;;;;;2.50;2.30;;;;;;;;;;4217659;34;20106;-63
2022/06/16 15:48:03;;;;;;;5.15;3.47;;;;;;;;;;4218258;34;20125;-62
2022/06/16 15:50:30;;;;;;;4.10;3.08;;;;;;;;;;4195508;34;20493;-62
2022/06/16 15:52:59;;;;;;;7.72;5.20;;;;;;;;;;4207016;34;20098;-62
2022/06/16 15:55:34;;;;;;;8.13;3.45;;;;;;;;;;4207151;34;20128;-63
2022/06/16 15:58:04;;;;;;;7.87;3.20;;;;;;;;;;4195020;34;20552;-65
2022/06/16 16:00:31;;;;;;;5.70;3.05;;;;;;;;;;4207175;34;20132;-63
2022/06/16 16:02:59;;;;;;;6.35;2.70;;;;;;;;;;4219611;34;20133;-62
2022/06/16 16:05:30;;;;;;;5.18;2.58;;;;;;;;;;4206909;34;20109;-63
2022/06/16 16:07:57;;;;;;;8.70;3.15;;;;;;;;;;4218381;34;20529;-63
2022/06/16 16:10:25;;;;;;;5.12;2.78;;;;;;;;;;4206895;34;20181;-62